Time;durP1;ratioP1;P1;durP2;ratioP2;P2;SDS_P1;SDS_P2;PMS_P1;PMS_P2;Temp;Humidity;BMP_temperature;BMP_pressure;BME280_temperature;BME280_humidity;BME280_pressure;Samples;Min_cycle;Max_cycle;Signal;HPM_P1;HPM_P2
2023/04/21 00:02:02;;;;;;;113.97;40.88;;;2.50;99.90;;;;;;5049791;28;20021;-87
2023/04/21 00:04:28;;;;;;;114.10;39.00;;;2.50;99.90;;;;;;5029821;28;20109;-87
2023/04/21 00:06:54;;;;;;;109.80;38.25;;;2.40;99.90;;;;;;5032257;28;20507;-87
2023/04/21 00:09:20;;;;;;;101.10;37.33;;;2.30;99.90;;;;;;5027014;28;20034;-87
2023/04/21 00:11:46;;;;;;;112.68;38.70;;;2.30;99.90;;;;;;5030745;28;20397;-87
2023/04/21 00:14:12;;;;;;;106.63;36.35;;;2.30;99.90;;;;;;5029536;28;20044;-87
2023/04/21 00:16:38;;;;;;;111.07;40.10;;;2.30;99.90;;;;;;5027845;28;20547;-87
2023/04/21 00:19:05;;;;;;;123.55;42.55;;;2.30;99.90;;;;;;5029356;28;20022;-87
2023/04/21 00:21:35;;;;;;;102.47;39.00;;;2.40;99.90;;;;;;5026784;28;20053;-87
2023/04/21 00:24:01;;;;;;;121.10;41.67;;;2.50;99.90;;;;;;5048728;28;20018;-87
2023/04/21 00:26:26;;;;;;;116.20;42.60;;;2.60;99.90;;;;;;5029514;28;20034;-87
2023/04/21 00:28:52;;;;;;;123.85;41.97;;;2.70;99.90;;;;;;5029675;28;20104;-87
2023/04/21 00:31:18;;;;;;;126.18;42.17;;;2.60;99.90;;;;;;5027455;28;20037;-88
2023/04/21 00:33:43;;;;;;;114.80;40.72;;;2.50;99.90;;;;;;5027044;28;20032;-87
2023/04/21 00:36:09;;;;;;;108.65;41.75;;;2.60;99.90;;;;;;5041089;28;20493;-88
2023/04/21 00:38:35;;;;;;;127.57;44.83;;;2.50;99.90;;;;;;5039174;28;20465;-88
2023/04/21 00:41:01;;;;;;;130.10;41.53;;;2.50;99.90;;;;;;5031142;28;20648;-87
2023/04/21 00:43:27;;;;;;;120.93;43.55;;;2.50;99.90;;;;;;5036108;28;20745;-87
2023/04/21 00:45:53;;;;;;;131.88;43.67;;;2.60;99.90;;;;;;5023836;28;20120;-88
2023/04/21 00:48:19;;;;;;;122.85;43.80;;;2.70;99.90;;;;;;5026660;28;20169;-87
2023/04/21 00:50:45;;;;;;;120.72;40.92;;;2.70;99.90;;;;;;5045741;28;20044;-87
2023/04/21 00:53:13;;;;;;;120.38;43.13;;;2.80;99.90;;;;;;5047738;28;20029;-88
2023/04/21 00:55:39;;;;;;;129.57;44.47;;;2.80;99.90;;;;;;5028370;28;20036;-88
2023/04/21 00:58:04;;;;;;;126.25;43.28;;;2.90;99.90;;;;;;5022037;28;20026;-87
2023/04/21 01:00:31;;;;;;;125.82;44.20;;;2.90;99.90;;;;;;5017999;28;20029;-87
2023/04/21 01:02:58;;;;;;;132.32;43.63;;;2.80;99.90;;;;;;5019251;28;20104;-87
2023/04/21 01:05:24;;;;;;;134.65;44.10;;;2.80;99.90;;;;;;5052442;28;20029;-87
2023/04/21 01:07:50;;;;;;;129.05;44.20;;;2.80;99.90;;;;;;5020071;28;20516;-87
2023/04/21 01:10:16;;;;;;;123.70;42.15;;;2.70;99.90;;;;;;5032175;28;20037;-87
2023/04/21 01:12:45;;;;;;;117.13;40.55;;;2.70;99.90;;;;;;5030092;28;20030;-87
2023/04/21 01:15:13;;;;;;;125.93;39.90;;;2.60;99.90;;;;;;5032585;28;20038;-87
2023/04/21 01:17:39;;;;;;;121.20;42.35;;;2.60;99.90;;;;;;5013628;28;20781;-87
2023/04/21 01:20:10;;;;;;;120.70;40.58;;;2.50;99.90;;;;;;5050146;28;20036;-87
2023/04/21 01:22:36;;;;;;;;;;;2.50;99.90;;;;;;5028666;28;20037;-87
2023/04/21 01:25:02;;;;;;;107.38;38.15;;;2.50;99.90;;;;;;5017614;28;19905;-87
2023/04/21 01:27:28;;;;;;;111.65;38.70;;;2.50;99.90;;;;;;5052476;28;20044;-87
2023/04/21 01:29:54;;;;;;;98.93;36.50;;;2.40;99.90;;;;;;5034425;28;20109;-87
2023/04/21 01:32:23;;;;;;;108.78;38.58;;;2.40;99.90;;;;;;5032190;28;20092;-87
2023/04/21 01:34:52;;;;;;;101.63;37.00;;;2.40;99.90;;;;;;5051544;28;20041;-87
2023/04/21 01:37:21;;;;;;;100.18;36.22;;;2.40;99.90;;;;;;5032812;28;20104;-87
2023/04/21 01:39:53;;;;;;;109.70;37.05;;;2.50;99.90;;;;;;5026022;28;20041;-87
2023/04/21 01:42:21;;;;;;;109.68;39.42;;;2.50;99.90;;;;;;5034291;28;20038;-87
2023/04/21 01:44:48;;;;;;;114.57;37.78;;;2.50;99.90;;;;;;5051815;28;20038;-87
2023/04/21 01:47:16;;;;;;;118.53;39.80;;;2.50;99.90;;;;;;5035155;28;20017;-87
2023/04/21 01:49:42;;;;;;;116.22;38.58;;;2.60;99.90;;;;;;5020689;28;20068;-87
2023/04/21 01:52:07;;;;;;;126.28;41.17;;;2.50;99.90;;;;;;5023812;28;20026;-87
2023/04/21 01:54:34;;;;;;;123.05;40.55;;;2.50;99.90;;;;;;5030290;28;20037;-87
2023/04/21 01:57:01;;;;;;;133.23;43.28;;;2.50;99.90;;;;;;5031552;28;20048;-87
2023/04/21 01:59:27;;;;;;;123.20;41.88;;;2.50;99.90;;;;;;5027395;28;20033;-87
2023/04/21 02:01:52;;;;;;;140.35;43.72;;;2.50;99.90;;;;;;5032749;28;20068;-87
2023/04/21 02:04:18;;;;;;;125.18;40.40;;;2.50;99.90;;;;;;5034596;28;20030;-87
2023/04/21 02:06:44;;;;;;;116.97;39.78;;;2.60;99.90;;;;;;5017773;28;20025;-87
2023/04/21 02:09:10;;;;;;;125.65;40.72;;;2.60;99.90;;;;;;5030420;28;20134;-87
2023/04/21 02:11:36;;;;;;;126.60;41.92;;;2.60;99.90;;;;;;5032189;28;20029;-87
2023/04/21 02:14:02;;;;;;;128.48;42.13;;;2.60;99.90;;;;;;5018709;28;20026;-87
2023/04/21 02:16:28;;;;;;;131.32;44.85;;;2.60;99.90;;;;;;5028535;28;20061;-87
2023/04/21 02:18:55;;;;;;;133.68;45.40;;;2.70;99.90;;;;;;5031007;28;20080;-87
2023/04/21 02:21:22;;;;;;;141.18;44.55;;;2.80;99.90;;;;;;5031934;28;20018;-87
2023/04/21 02:23:49;;;;;;;146.40;47.30;;;2.80;99.90;;;;;;5030325;28;20022;-87
2023/04/21 02:26:16;;;;;;;133.57;42.45;;;2.80;99.90;;;;;;5031014;28;20077;-87
2023/04/21 02:28:42;;;;;;;137.50;43.33;;;2.70;99.90;;;;;;5031199;28;20469;-87
2023/04/21 02:31:07;;;;;;;136.63;43.65;;;2.60;99.90;;;;;;5032435;28;20068;-87
2023/04/21 02:33:34;;;;;;;126.78;42.80;;;2.50;99.90;;;;;;5022447;28;20030;-87
2023/04/21 02:35:59;;;;;;;133.70;43.90;;;2.50;99.90;;;;;;5015095;28;20026;-87
2023/04/21 02:38:25;;;;;;;131.38;43.90;;;2.50;99.90;;;;;;5027283;28;20381;-87
2023/04/21 02:40:51;;;;;;;128.48;43.80;;;2.50;99.90;;;;;;5031241;28;20086;-87
2023/04/21 02:43:17;;;;;;;148.13;45.15;;;2.50;99.90;;;;;;5028187;28;20026;-87
2023/04/21 02:45:43;;;;;;;141.63;43.67;;;2.40;99.90;;;;;;5030646;28;20118;-87
2023/04/21 02:48:11;;;;;;;140.70;45.65;;;2.30;99.90;;;;;;5029303;28;20743;-87
2023/04/21 02:50:36;;;;;;;143.57;44.25;;;2.30;99.90;;;;;;5047275;28;20047;-87
2023/04/21 02:53:03;;;;;;;142.52;43.38;;;2.30;99.90;;;;;;5017962;28;20029;-87
2023/04/21 02:55:28;;;;;;;137.55;45.38;;;2.30;99.90;;;;;;5031028;28;20026;-87
2023/04/21 02:57:55;;;;;;;122.07;42.47;;;2.20;99.90;;;;;;5015681;28;20088;-87
2023/04/21 03:00:22;;;;;;;112.95;42.50;;;2.20;99.90;;;;;;5031165;28;20025;-87
2023/04/21 03:02:48;;;;;;;127.78;41.53;;;2.20;99.90;;;;;;5028431;28;20121;-87
2023/04/21 03:05:16;;;;;;;133.00;41.22;;;2.10;99.90;;;;;;5029616;28;20029;-87
2023/04/21 03:07:44;;;;;;;127.22;42.58;;;2.10;99.90;;;;;;5014353;28;20446;-87
2023/04/21 03:10:10;;;;;;;120.65;40.80;;;2.00;99.90;;;;;;5016442;28;20025;-87
2023/04/21 03:12:36;;;;;;;142.27;44.35;;;1.90;99.90;;;;;;5025822;28;20044;-86
2023/04/21 03:15:03;;;;;;;140.48;44.13;;;1.90;99.90;;;;;;5032241;28;20026;-87
2023/04/21 03:17:28;;;;;;;139.68;44.80;;;1.90;99.90;;;;;;5028510;28;20129;-87
2023/04/21 03:19:54;;;;;;;136.25;44.28;;;1.90;99.90;;;;;;5031667;28;20697;-86
2023/04/21 03:22:20;;;;;;;140.75;43.70;;;1.80;99.90;;;;;;5030009;28;20048;-87
2023/04/21 03:24:45;;;;;;;126.78;43.20;;;1.80;99.90;;;;;;5032049;28;20025;-87
2023/04/21 03:27:11;;;;;;;120.35;39.33;;;1.80;99.90;;;;;;5014030;28;20033;-87
2023/04/21 03:29:37;;;;;;;124.57;43.17;;;1.80;99.90;;;;;;5032216;28;20118;-87
2023/04/21 03:32:03;;;;;;;124.53;41.45;;;1.80;99.90;;;;;;5017617;28;20108;-87
2023/04/21 03:34:28;;;;;;;124.78;40.67;;;1.80;99.90;;;;;;5029804;28;20040;-87
2023/04/21 03:36:56;;;;;;;111.22;38.50;;;1.80;99.90;;;;;;5047187;28;20116;-87
2023/04/21 03:39:21;;;;;;;119.90;40.65;;;1.80;99.90;;;;;;5050032;28;20425;-87
2023/04/21 03:41:48;;;;;;;115.32;38.50;;;1.80;99.90;;;;;;5025830;28;20064;-86
2023/04/21 03:44:14;;;;;;;116.30;39.20;;;1.80;99.90;;;;;;5029336;28;20110;-87
2023/04/21 03:46:40;;;;;;;113.38;39.58;;;1.90;99.90;;;;;;5013338;28;20026;-87
2023/04/21 03:49:05;;;;;;;112.43;38.50;;;1.90;99.90;;;;;;5014477;28;20466;-87
2023/04/21 03:51:31;;;;;;;121.38;41.75;;;1.90;99.90;;;;;;5027239;28;20405;-87
2023/04/21 03:53:58;;;;;;;108.82;38.55;;;2.00;99.90;;;;;;5031028;28;20029;-87
2023/04/21 03:56:23;;;;;;;117.22;40.15;;;2.00;99.90;;;;;;5027768;28;20089;-86
2023/04/21 03:58:49;;;;;;;114.72;38.90;;;2.10;99.90;;;;;;5012952;28;20461;-87
2023/04/21 04:01:15;;;;;;;110.22;39.35;;;2.10;99.90;;;;;;5029478;28;20041;-87
2023/04/21 04:03:40;;;;;;;113.47;38.80;;;2.10;99.90;;;;;;5030950;28;20047;-87
2023/04/21 04:06:06;;;;;;;105.78;37.05;;;2.10;99.90;;;;;;5017288;28;20046;-87
2023/04/21 04:08:32;;;;;;;104.30;38.33;;;2.00;99.90;;;;;;5027677;28;20340;-87
2023/04/21 04:10:57;;;;;;;106.75;35.95;;;2.00;99.90;;;;;;5027835;28;20022;-87
2023/04/21 04:13:25;;;;;;;102.70;37.35;;;2.00;99.90;;;;;;5049203;28;20116;-87
2023/04/21 04:15:51;;;;;;;98.80;36.00;;;2.00;99.90;;;;;;5024024;28;20490;-87
2023/04/21 04:18:16;;;;;;;102.22;38.17;;;2.00;99.90;;;;;;5029010;28;20036;-87
2023/04/21 04:20:42;;;;;;;104.18;36.67;;;2.00;99.90;;;;;;5028076;28;20112;-87
2023/04/21 04:23:08;;;;;;;102.30;36.40;;;2.00;99.90;;;;;;5029673;28;20026;-87
2023/04/21 04:25:33;;;;;;;92.85;34.22;;;2.00;99.90;;;;;;5024674;28;20017;-90
2023/04/21 04:27:59;;;;;;;98.38;35.05;;;1.90;99.90;;;;;;5025518;28;20033;-89
2023/04/21 04:30:28;;;;;;;101.80;36.15;;;1.90;99.90;;;;;;5026604;28;20076;-89
2023/04/21 04:32:56;;;;;;;108.65;39.97;;;1.90;99.90;;;;;;5029275;28;20033;-89
2023/04/21 04:35:22;;;;;;;116.25;39.97;;;1.90;99.90;;;;;;5027223;28;20034;-89
2023/04/21 04:37:48;;;;;;;117.40;40.80;;;2.00;99.90;;;;;;5030194;28;20025;-89
2023/04/21 04:40:14;;;;;;;122.03;41.70;;;2.10;99.90;;;;;;5015560;28;20389;-90
2023/04/21 04:42:41;;;;;;;124.55;43.47;;;2.20;99.90;;;;;;5028217;28;20100;-89
2023/04/21 04:45:08;;;;;;;108.55;39.00;;;2.30;99.90;;;;;;5028896;28;20018;-90
2023/04/21 04:47:34;;;;;;;113.70;40.78;;;2.30;99.90;;;;;;5029431;28;20101;-90
2023/04/21 04:50:00;;;;;;;115.28;41.20;;;2.50;99.90;;;;;;5012808;28;20084;-89
2023/04/21 04:52:26;;;;;;;115.13;39.80;;;2.50;99.90;;;;;;5047936;28;20021;-90
2023/04/21 04:54:51;;;;;;;115.28;40.50;;;2.60;99.90;;;;;;5048250;28;20029;-90
2023/04/21 04:57:17;;;;;;;218.00;78.60;;;2.70;99.90;;;;;;5028419;28;20029;-89
2023/04/21 04:59:48;;;;;;;158.52;58.30;;;2.80;99.90;;;;;;5023050;28;20050;-89
2023/04/21 05:02:14;;;;;;;119.32;46.60;;;2.90;99.90;;;;;;5026490;28;20037;-90
2023/04/21 05:04:40;;;;;;;123.25;49.83;;;3.00;99.90;;;;;;5024662;28;20033;-89
2023/04/21 05:07:06;;;;;;;134.73;51.33;;;3.10;99.90;;;;;;5027807;28;20418;-90
2023/04/21 05:09:33;;;;;;;134.48;51.75;;;3.20;99.90;;;;;;5026279;28;20030;-89
2023/04/21 05:12:00;;;;;;;119.00;47.28;;;3.30;99.90;;;;;;5030671;28;20404;-89
2023/04/21 05:14:26;;;;;;;117.50;45.03;;;3.40;99.90;;;;;;5047567;28;20138;-90
2023/04/21 05:16:51;;;;;;;115.05;44.85;;;3.50;99.90;;;;;;5031950;28;20033;-90
2023/04/21 05:19:17;;;;;;;117.90;43.60;;;3.70;99.90;;;;;;5014095;28;20503;-90
2023/04/21 05:21:43;;;;;;;126.97;43.67;;;3.80;99.90;;;;;;5016749;28;20026;-90
2023/04/21 05:24:08;;;;;;;100.88;41.25;;;3.90;99.90;;;;;;5028591;28;20116;-89
2023/04/21 05:26:34;;;;;;;105.50;39.97;;;4.00;99.90;;;;;;5047245;28;20880;-90
2023/04/21 05:29:00;;;;;;;116.97;42.10;;;4.10;99.90;;;;;;5026912;28;20032;-90
2023/04/21 05:31:26;;;;;;;109.05;42.58;;;4.30;99.90;;;;;;5023447;28;20730;-90
2023/04/21 05:33:52;;;;;;;119.30;43.88;;;4.40;99.90;;;;;;5011420;28;20033;-90
2023/04/21 05:36:19;;;;;;;105.90;42.00;;;4.50;99.90;;;;;;5018734;28;20036;-90
2023/04/21 05:38:45;;;;;;;112.70;44.17;;;4.60;99.90;;;;;;5029782;28;20018;-90
2023/04/21 05:41:11;;;;;;;106.07;41.33;;;4.60;99.90;;;;;;5034755;28;20501;-90
2023/04/21 05:43:37;;;;;;;92.50;35.45;;;4.70;99.90;;;;;;5030074;28;20822;-89
2023/04/21 05:46:08;;;;;;;79.22;33.58;;;4.70;99.90;;;;;;5033820;28;20033;-90
2023/04/21 05:48:34;;;;;;;78.90;35.35;;;4.80;99.90;;;;;;5014566;28;20037;-90
2023/04/21 05:51:10;;;;;;;77.72;36.75;;;4.80;99.90;;;;;;5024530;28;20037;-90
2023/04/21 05:53:37;;;;;;;76.18;35.58;;;4.90;99.90;;;;;;5032949;28;20710;-90
2023/04/21 05:56:03;;;;;;;69.82;29.77;;;5.00;99.90;;;;;;5050272;28;20029;-90
2023/04/21 05:58:29;;;;;;;62.75;31.50;;;5.20;99.90;;;;;;5032552;28;20025;-91
2023/04/21 06:00:54;;;;;;;60.35;27.48;;;5.40;99.90;;;;;;5014360;28;20109;-90
2023/04/21 06:03:20;;;;;;;59.50;27.48;;;5.70;99.90;;;;;;5013449;28;20071;-90
2023/04/21 06:05:46;;;;;;;53.53;27.83;;;5.90;99.90;;;;;;5031270;28;20033;-91
2023/04/21 06:08:12;;;;;;;37.80;20.50;;;6.10;99.90;;;;;;5016603;28;20077;-91
2023/04/21 06:10:37;;;;;;;31.98;17.75;;;6.20;99.90;;;;;;5030987;28;20120;-90
2023/04/21 06:13:03;;;;;;;29.02;16.40;;;6.10;99.90;;;;;;5011806;28;20037;-90
2023/04/21 06:15:29;;;;;;;29.45;16.13;;;6.20;99.90;;;;;;5029538;28;20113;-90
2023/04/21 06:17:55;;;;;;;30.58;17.52;;;6.10;99.90;;;;;;5040123;28;20087;-90
2023/04/21 06:20:21;;;;;;;33.80;17.38;;;6.10;99.90;;;;;;5032848;28;20028;-90
2023/04/21 06:22:46;;;;;;;37.13;19.30;;;6.10;99.90;;;;;;5024713;28;20548;-90
2023/04/21 06:25:12;;;;;;;42.60;21.60;;;6.20;99.90;;;;;;5008715;28;20502;-90
2023/04/21 06:27:38;;;;;;;40.05;21.45;;;6.10;99.90;;;;;;5012686;28;20064;-90
2023/04/21 06:30:04;;;;;;;42.72;22.17;;;6.20;99.90;;;;;;5032575;28;20032;-90
2023/04/21 06:32:30;;;;;;;47.13;21.95;;;6.20;99.90;;;;;;5021374;28;20453;-89
2023/04/21 06:34:56;;;;;;;41.83;22.13;;;6.30;99.90;;;;;;5021021;28;20041;-90
2023/04/21 06:37:21;;;;;;;47.90;24.15;;;6.40;99.90;;;;;;5029604;28;20503;-90
2023/04/21 06:39:47;;;;;;;51.55;26.73;;;6.40;99.90;;;;;;5026209;28;20029;-90
2023/04/21 06:42:13;;;;;;;55.15;26.35;;;6.50;99.90;;;;;;5033168;28;20453;-90
2023/04/21 06:44:41;;;;;;;53.60;25.58;;;6.60;99.90;;;;;;5013162;28;20026;-90
2023/04/21 06:47:07;;;;;;;55.17;28.58;;;6.70;99.90;;;;;;5028952;28;20391;-91
2023/04/21 06:49:33;;;;;;;56.97;27.95;;;6.80;99.90;;;;;;5018654;28;20112;-90
2023/04/21 06:51:59;;;;;;;52.13;26.38;;;6.80;99.90;;;;;;5019451;28;20026;-90
2023/04/21 06:54:25;;;;;;;60.42;29.58;;;6.80;99.90;;;;;;5024302;28;20377;-90
2023/04/21 06:56:52;;;;;;;54.08;27.92;;;6.80;99.90;;;;;;5020343;28;20029;-90
2023/04/21 06:59:17;;;;;;;54.33;28.58;;;6.90;99.90;;;;;;5022526;28;20034;-91
2023/04/21 07:01:43;;;;;;;61.67;27.73;;;7.00;99.90;;;;;;5020137;28;20477;-90
2023/04/21 07:04:09;;;;;;;53.30;29.05;;;7.10;99.90;;;;;;5041604;28;20062;-90
2023/04/21 07:06:35;;;;;;;55.55;28.27;;;7.40;99.90;;;;;;5018401;28;20488;-90
2023/04/21 07:09:01;;;;;;;54.20;28.17;;;7.30;99.90;;;;;;5022471;28;20025;-85
2023/04/21 07:11:27;;;;;;;49.92;25.27;;;7.60;99.90;;;;;;5020073;28;20042;-90
2023/04/21 07:13:54;;;;;;;54.10;27.70;;;7.60;99.90;;;;;;5020384;28;20040;-90
2023/04/21 07:16:20;;;;;;;49.55;25.67;;;7.80;99.90;;;;;;5030812;28;20042;-90
2023/04/21 07:18:45;;;;;;;43.88;24.25;;;7.80;99.90;;;;;;5037121;28;20025;-90
2023/04/21 07:21:11;;;;;;;43.45;22.75;;;7.90;99.90;;;;;;5029713;28;20453;-90
2023/04/21 07:23:37;;;;;;;36.70;21.52;;;8.10;99.90;;;;;;5022574;28;20033;-90
2023/04/21 07:26:02;;;;;;;43.10;21.63;;;8.30;99.90;;;;;;5034532;28;20398;-89
2023/04/21 07:28:28;;;;;;;42.15;20.95;;;8.60;99.90;;;;;;5020173;28;20080;-91
2023/04/21 07:30:55;;;;;;;39.40;21.58;;;8.60;99.90;;;;;;5042572;28;20037;-91
2023/04/21 07:33:21;;;;;;;38.85;21.75;;;8.80;99.90;;;;;;5030669;28;20649;-89
2023/04/21 07:35:47;;;;;;;37.72;21.45;;;8.90;99.90;;;;;;5040428;28;20144;-90
2023/04/21 07:38:13;;;;;;;38.40;21.30;;;9.00;99.90;;;;;;5030620;28;20060;-90
2023/04/21 07:40:39;;;;;;;38.85;21.15;;;9.00;99.90;;;;;;5028350;28;20489;-89
2023/04/21 07:43:04;;;;;;;36.38;20.67;;;8.90;99.90;;;;;;5021256;28;20053;-90
2023/04/21 07:45:30;;;;;;;39.85;21.05;;;9.00;99.90;;;;;;5025294;28;20034;-90
2023/04/21 07:47:56;;;;;;;45.63;23.67;;;9.20;99.90;;;;;;5022158;28;20033;-90
2023/04/21 07:50:22;;;;;;;45.25;23.55;;;9.10;99.90;;;;;;5023104;28;20091;-89
2023/04/21 07:52:48;;;;;;;41.20;22.10;;;8.90;99.90;;;;;;5036012;28;20037;-90
2023/04/21 07:55:14;;;;;;;38.30;20.98;;;8.90;99.90;;;;;;5017598;28;20037;-89
2023/04/21 07:57:39;;;;;;;44.05;22.17;;;8.90;99.90;;;;;;5035637;28;20037;-90
2023/04/21 08:00:06;;;;;;;36.45;21.65;;;9.00;99.90;;;;;;5022921;28;20073;-90
2023/04/21 08:02:38;;;;;;;39.92;22.75;;;9.20;99.90;;;;;;5021355;28;20090;-90
2023/04/21 08:05:04;;;;;;;42.75;23.48;;;9.20;99.90;;;;;;5025256;28;20117;-89
2023/04/21 08:07:30;;;;;;;47.72;23.50;;;9.10;99.90;;;;;;5022619;28;20200;-90
2023/04/21 08:09:56;;;;;;;42.03;22.23;;;9.20;99.90;;;;;;5039426;28;20052;-90
2023/04/21 08:12:22;;;;;;;39.25;23.10;;;9.30;99.90;;;;;;5028115;28;20034;-90
2023/04/21 08:14:48;;;;;;;39.05;22.35;;;9.40;99.90;;;;;;5029935;28;20048;-89
2023/04/21 08:17:13;;;;;;;41.22;22.17;;;9.60;99.90;;;;;;5020208;28;20045;-89
2023/04/21 08:19:39;;;;;;;37.63;20.85;;;9.80;99.90;;;;;;5015418;28;20065;-90
2023/04/21 08:22:05;;;;;;;42.45;23.98;;;9.90;99.90;;;;;;5016167;28;20355;-89
2023/04/21 08:24:31;;;;;;;45.10;24.55;;;9.70;99.90;;;;;;5026418;28;20684;-90
2023/04/21 08:26:57;;;;;;;39.60;22.67;;;9.70;99.90;;;;;;5017591;28;20040;-89
2023/04/21 08:29:23;;;;;;;41.83;22.45;;;10.10;99.90;;;;;;5013824;28;20029;-90
2023/04/21 08:31:48;;;;;;;43.25;22.50;;;10.50;99.90;;;;;;5020286;28;20084;-90
2023/04/21 08:34:14;;;;;;;38.63;22.35;;;11.00;99.90;;;;;;5010601;28;20125;-90
2023/04/21 08:36:41;;;;;;;41.92;23.52;;;10.80;99.90;;;;;;5028560;28;20411;-91
2023/04/21 08:39:16;;;;;;;40.60;23.25;;;10.80;99.90;;;;;;5026712;28;20034;-90
2023/04/21 08:41:42;;;;;;;43.85;23.83;;;10.70;99.90;;;;;;5018450;28;20025;-90
2023/04/21 08:44:10;;;;;;;37.30;21.60;;;10.50;99.90;;;;;;5004521;28;20022;-89
2023/04/21 08:46:36;;;;;;;41.70;23.08;;;10.50;99.90;;;;;;5024439;28;20025;-89
2023/04/21 08:49:02;;;;;;;45.50;24.33;;;10.40;99.90;;;;;;5025842;28;20025;-90
2023/04/21 08:51:29;;;;;;;44.80;23.75;;;10.40;99.90;;;;;;5019190;28;20032;-90
2023/04/21 08:53:55;;;;;;;38.10;22.27;;;10.40;99.90;;;;;;5046402;28;20116;-89
2023/04/21 08:56:23;;;;;;;36.90;21.58;;;10.70;99.90;;;;;;5031306;28;20036;-90
2023/04/21 08:58:48;;;;;;;35.60;21.33;;;10.90;99.90;;;;;;5049491;28;20026;-91
2023/04/21 09:01:14;;;;;;;38.10;22.77;;;11.30;99.90;;;;;;5024152;28;20025;-91
2023/04/21 09:03:40;;;;;;;34.67;22.15;;;11.80;99.90;;;;;;5022300;28;20013;-91
2023/04/21 09:06:08;;;;;;;38.03;22.17;;;12.00;99.90;;;;;;5033011;28;20025;-91
2023/04/21 09:08:42;;;;;;;35.67;21.17;;;12.40;99.90;;;;;;5033096;28;20061;-91
2023/04/21 09:11:07;;;;;;;40.72;22.88;;;12.60;99.90;;;;;;5033060;28;20434;-90
2023/04/21 09:13:36;;;;;;;34.42;21.08;;;13.00;99.90;;;;;;5035573;28;20092;-89
2023/04/21 09:16:13;;;;;;;30.05;18.75;;;13.70;99.90;;;;;;5015135;28;20504;-90
2023/04/21 09:18:39;;;;;;;35.90;21.02;;;14.00;99.90;;;;;;5046610;28;20036;-90
2023/04/21 09:21:07;;;;;;;44.40;22.50;;;14.80;99.90;;;;;;5016840;28;20060;-91
2023/04/21 09:24:04;;;;;;;32.72;20.98;;;15.50;99.90;;;;;;5030578;28;20022;-91
2023/04/21 09:26:31;;;;;;;43.00;23.52;;;15.40;99.90;;;;;;5003725;28;20381;-91
2023/04/21 09:28:57;;;;;;;36.00;21.25;;;15.40;99.90;;;;;;5031309;28;20029;-90
2023/04/21 09:31:23;;;;;;;39.30;22.75;;;14.50;99.90;;;;;;5035512;28;20370;-90
2023/04/21 09:33:58;;;;;;;34.58;20.52;;;14.10;99.90;;;;;;5031129;28;20034;-90
2023/04/21 09:36:26;;;;;;;33.03;21.05;;;14.00;99.90;;;;;;5034397;28;20818;-89
2023/04/21 09:39:03;;;;;;;34.45;20.25;;;14.00;99.90;;;;;;5042834;28;20532;-89
2023/04/21 09:41:32;;;;;;;39.97;21.02;;;13.80;99.90;;;;;;5033076;28;20038;-90
2023/04/21 09:44:03;;;;;;;37.05;22.67;;;14.40;99.90;;;;;;5041255;28;20028;-89
2023/04/21 09:46:32;;;;;;;39.00;21.60;;;14.60;99.90;;;;;;5039250;28;20045;-90
2023/04/21 09:49:00;;;;;;;37.72;20.70;;;15.00;99.90;;;;;;5024700;28;20403;-90
2023/04/21 09:51:26;;;;;;;30.95;19.75;;;15.10;99.90;;;;;;5027277;28;20029;-89
2023/04/21 09:53:55;;;;;;;27.08;18.02;;;15.20;99.90;;;;;;5008449;28;20502;-90
2023/04/21 09:56:24;;;;;;;27.13;18.17;;;15.00;99.90;;;;;;5032744;28;20120;-91
2023/04/21 09:59:18;;;;;;;31.88;20.45;;;15.20;99.90;;;;;;5017860;28;20033;-89
2023/04/21 10:01:47;;;;;;;32.53;18.98;;;15.40;99.90;;;;;;5043234;28;20116;-90
2023/04/21 10:04:13;;;;;;;33.58;20.85;;;15.30;99.90;;;;;;5035149;28;20040;-90
2023/04/21 10:06:40;;;;;;;34.40;21.63;;;15.10;99.90;;;;;;5015632;28;20361;-91
2023/04/21 10:09:08;;;;;;;35.50;21.50;;;14.50;99.90;;;;;;5028273;28;20025;-90
2023/04/21 10:11:35;;;;;;;29.38;19.10;;;14.20;99.90;;;;;;5034611;28;20358;-91
2023/04/21 10:14:03;;;;;;;29.42;20.30;;;14.20;99.90;;;;;;5037979;28;20045;-90
2023/04/21 10:16:28;;;;;;;29.70;18.80;;;13.70;99.90;;;;;;5017805;28;20057;-91
2023/04/21 10:18:54;;;;;;;33.60;20.70;;;13.80;99.90;;;;;;5036555;28;20036;-90
2023/04/21 10:21:21;;;;;;;37.15;22.42;;;13.90;99.90;;;;;;5028889;28;20694;-91
2023/04/21 10:23:52;;;;;;;33.78;20.92;;;14.10;99.90;;;;;;5018044;28;20104;-91
2023/04/21 10:26:23;;;;;;;33.75;21.35;;;13.90;99.90;;;;;;5039224;28;20064;-92
2023/04/21 10:29:03;;;;;;;29.45;19.27;;;13.90;99.90;;;;;;5022293;28;20526;-91
2023/04/21 10:32:02;;;;;;;34.27;20.90;;;14.40;99.90;;;;;;5027801;28;20066;-90
2023/04/21 10:34:35;;;;;;;32.45;20.63;;;14.50;99.90;;;;;;5016496;28;20042;-91
2023/04/21 10:37:03;;;;;;;35.05;23.20;;;14.40;99.90;;;;;;5029090;28;20087;-91
2023/04/21 10:39:46;;;;;;;35.33;23.27;;;14.30;99.90;;;;;;5030302;28;20108;-91
2023/04/21 10:42:12;;;;;;;30.42;20.58;;;14.20;99.90;;;;;;5017799;28;20034;-90
2023/04/21 10:45:30;;;;;;;33.15;21.88;;;14.30;99.90;;;;;;5042676;28;20078;-91
2023/04/21 10:48:05;;;;;;;35.10;22.23;;;14.70;99.90;;;;;;5010753;28;20033;-91
2023/04/21 10:50:32;;;;;;;31.80;21.92;;;15.00;99.90;;;;;;5025753;28;20092;-92
2023/04/21 10:53:47;;;;;;;32.67;21.48;;;15.60;99.90;;;;;;5028880;28;20097;-91
2023/04/21 10:56:13;;;;;;;38.95;23.35;;;16.60;99.90;;;;;;5014545;28;20091;-91
2023/04/21 10:58:40;;;;;;;31.60;21.88;;;17.00;99.90;;;;;;5015506;28;20029;-92
2023/04/21 11:01:06;;;;;;;30.15;19.75;;;16.60;99.90;;;;;;5030992;28;20026;-92
2023/04/21 11:03:35;;;;;;;32.95;21.65;;;17.00;99.90;;;;;;5033576;28;20076;-91
2023/04/21 11:06:13;;;;;;;32.42;20.83;;;17.20;99.90;;;;;;5031101;28;20056;-92
2023/04/21 11:08:54;;;;;;;34.97;22.70;;;17.30;99.90;;;;;;5012402;28;20025;-92
2023/04/21 11:11:23;;;;;;;30.90;21.65;;;16.70;99.90;;;;;;5018565;28;20042;-91
2023/04/21 11:13:51;;;;;;;31.95;20.75;;;16.50;99.90;;;;;;5034853;28;20444;-91
2023/04/21 11:16:18;;;;;;;31.38;21.52;;;16.10;99.90;;;;;;5019242;28;20069;-92
2023/04/21 11:18:44;;;;;;;34.00;21.98;;;16.40;99.90;;;;;;5031253;28;20117;-91
2023/04/21 11:21:23;;;;;;;37.42;22.83;;;16.20;99.90;;;;;;5015244;28;20077;-92
2023/04/21 11:23:54;;;;;;;35.47;23.65;;;16.10;99.90;;;;;;5016715;28;20376;-92
2023/04/21 11:26:32;;;;;;;36.72;24.23;;;15.60;99.90;;;;;;5049374;28;20405;-92
2023/04/21 11:29:05;;;;;;;33.72;22.67;;;15.50;99.90;;;;;;5038685;28;20124;-91
2023/04/21 11:31:32;;;;;;;33.00;21.88;;;15.30;99.90;;;;;;5032624;28;20038;-91
2023/04/21 11:33:59;;;;;;;34.63;23.42;;;14.90;99.90;;;;;;5030167;28;20025;-92
2023/04/21 11:36:28;;;;;;;32.50;22.33;;;14.40;99.90;;;;;;5029570;28;20524;-91
2023/04/21 11:38:53;;;;;;;34.05;22.45;;;14.10;99.90;;;;;;5031063;28;20732;-91
2023/04/21 11:41:23;;;;;;;39.55;23.80;;;14.00;99.90;;;;;;5024100;28;20030;-91
2023/04/21 11:43:51;;;;;;;39.85;22.98;;;14.10;99.90;;;;;;5030209;28;20465;-89
2023/04/21 11:46:24;;;;;;;36.80;23.38;;;14.20;99.90;;;;;;5024292;28;20029;-91
2023/04/21 11:49:07;;;;;;;31.92;21.65;;;14.40;99.90;;;;;;5015330;28;20030;-91
2023/04/21 11:51:40;;;;;;;36.22;23.52;;;14.30;99.90;;;;;;5017903;28;20038;-91
2023/04/21 11:54:11;;;;;;;36.40;24.10;;;14.50;99.90;;;;;;5030079;28;20040;-90
2023/04/21 11:56:39;;;;;;;33.80;22.52;;;15.20;99.90;;;;;;5015673;28;20473;-91
2023/04/21 11:59:13;;;;;;;37.08;23.25;;;16.00;99.90;;;;;;5032507;28;20025;-92
2023/04/21 12:01:42;;;;;;;33.65;23.10;;;16.30;99.90;;;;;;5023856;28;20025;-90
2023/04/21 12:04:14;;;;;;;35.03;24.00;;;15.90;99.90;;;;;;5029557;28;20024;-91
2023/04/21 12:06:40;;;;;;;34.60;22.15;;;15.80;99.90;;;;;;5032856;28;20037;-90
2023/04/21 12:09:06;;;;;;;30.65;21.98;;;16.10;99.90;;;;;;5029425;28;20444;-91
2023/04/21 12:11:33;;;;;;;30.50;21.58;;;16.30;99.90;;;;;;5015339;28;20044;-91
2023/04/21 12:14:33;;;;;;;33.00;21.40;;;16.30;99.90;;;;;;5028595;28;20030;-89
2023/04/21 12:16:59;;;;;;;35.08;22.70;;;15.60;99.90;;;;;;5015940;28;20037;-91
2023/04/21 12:19:39;;;;;;;29.25;19.85;;;14.90;99.90;;;;;;5016382;28;20478;-91
2023/04/21 12:22:17;;;;;;;30.05;20.25;;;14.60;99.90;;;;;;5014866;28;20025;-91
2023/04/21 12:24:43;;;;;;;37.10;24.77;;;14.40;99.90;;;;;;5024965;28;20076;-91
2023/04/21 12:27:09;;;;;;;36.42;23.55;;;14.50;99.90;;;;;;5011466;28;20469;-90
2023/04/21 12:29:37;;;;;;;31.38;21.35;;;15.10;99.90;;;;;;5021078;28;20033;-90
2023/04/21 12:32:07;;;;;;;32.78;21.52;;;15.40;99.90;;;;;;5025317;28;20040;-91
2023/04/21 12:34:34;;;;;;;34.28;21.92;;;15.70;99.90;;;;;;5031532;28;20029;-91